Time;durP1;ratioP1;P1;durP2;ratioP2;P2;SDS_P1;SDS_P2;PMS_P1;PMS_P2;Temp;Humidity;BMP_temperature;BMP_pressure;BME280_temperature;BME280_humidity;BME280_pressure;Samples;Min_cycle;Max_cycle;Signal;HPM_P1;HPM_P2
2022/11/01 00:01:39;;;;;;;;;;;;;;;12.58;73.67;99090.72;5230077;28;19928;-71
2022/11/01 00:04:29;;;;;;;;;;;;;;;12.64;72.73;99083.94;5223331;28;20073;-70
2022/11/01 00:07:19;;;;;;;;;;;;;;;12.52;73.90;99079.88;5208312;28;19921;-71
2022/11/01 00:10:09;;;;;;;;;;;;;;;12.62;73.77;99091.25;5230255;28;19926;-70
2022/11/01 00:12:59;;;;;;;;;;;;;;;12.41;73.49;99092.38;5240479;28;19951;-70
2022/11/01 00:15:50;;;;;;;;;;;;;;;12.40;74.15;99082.75;5243876;28;19947;-70
2022/11/01 00:18:40;;;;;;;;;;;;;;;12.43;73.52;99082.44;5229392;28;19998;-70
2022/11/01 00:21:30;;;;;;;;;;;;;;;12.45;73.19;99080.47;5235934;28;19979;-70
2022/11/01 00:24:19;;;;;;;;;;;;;;;12.39;73.73;99080.25;5227243;28;20397;-71
2022/11/01 00:27:09;;;;;;;;;;;;;;;12.35;73.52;99087.69;5226657;28;19927;-70
2022/11/01 00:29:59;;;;;;;;;;;;;;;12.41;73.52;99068.44;5233939;28;19943;-70
2022/11/01 00:32:48;;;;;;;;;;;;;;;12.43;73.57;99074.47;5231315;28;19944;-70
2022/11/01 00:35:38;;;;;;;;;;;;;;;12.35;73.87;99065.56;5226156;28;19986;-70
2022/11/01 00:38:28;;;;;;;;;;;;;;;12.46;73.37;99066.19;5224881;28;20413;-70
2022/11/01 00:41:19;;;;;;;;;;;;;;;12.42;73.56;99058.69;5218884;28;19952;-70
2022/11/01 00:44:09;;;;;;;;;;;;;;;12.49;73.61;99066.88;5241986;28;19927;-71
2022/11/01 00:46:59;;;;;;;;;;;;;;;12.50;73.47;99064.03;5247113;28;20295;-70
2022/11/01 00:49:49;;;;;;;;;;;;;;;12.63;74.14;99069.78;5241814;28;19927;-70
2022/11/01 00:52:39;;;;;;;;;;;;;;;12.61;73.83;99062.94;5239408;28;19927;-70
2022/11/01 00:55:29;;;;;;;;;;;;;;;12.58;73.41;99071.25;5247190;28;20606;-70
2022/11/01 00:58:18;;;;;;;;;;;;;;;12.39;75.13;99062.47;5246561;28;20006;-70
2022/11/01 01:01:08;;;;;;;;;;;;;;;12.50;73.91;99072.03;5232867;28;19971;-70
2022/11/01 01:03:59;;;;;;;;;;;;;;;12.49;73.94;99073.03;5247142;28;19931;-70
2022/11/01 01:06:48;;;;;;;;;;;;;;;12.45;74.51;99076.97;5232165;28;19943;-70
2022/11/01 01:09:38;;;;;;;;;;;;;;;12.40;73.33;99061.47;5240632;28;20290;-71
2022/11/01 01:12:28;;;;;;;;;;;;;;;12.41;74.00;99086.22;5238479;28;20366;-71
2022/11/01 01:15:18;;;;;;;;;;;;;;;12.45;74.36;99074.31;5235135;28;20019;-70
2022/11/01 01:18:08;;;;;;;;;;;;;;;12.43;74.18;99074.47;5232110;28;19949;-70
2022/11/01 01:20:59;;;;;;;;;;;;;;;12.50;74.65;99057.91;5233898;28;20451;-71
2022/11/01 01:23:50;;;;;;;;;;;;;;;12.50;74.16;99072.03;5246463;28;19953;-71
2022/11/01 01:26:40;;;;;;;;;;;;;;;12.49;75.60;99059.72;5246497;28;19982;-71
2022/11/01 01:29:29;;;;;;;;;;;;;;;12.73;75.21;99066.22;5241478;28;19927;-71
2022/11/01 01:32:20;;;;;;;;;;;;;;;12.77;75.08;99056.91;5236378;28;19989;-71
2022/11/01 01:35:10;;;;;;;;;;;;;;;12.82;75.22;99062.63;5246733;28;19927;-70
2022/11/01 01:38:00;;;;;;;;;;;;;;;13.01;74.49;99061.56;5244974;28;20393;-70
2022/11/01 01:40:50;;;;;;;;;;;;;;;13.02;74.60;99056.09;5232749;28;19975;-70
2022/11/01 01:43:41;;;;;;;;;;;;;;;13.06;74.44;99046.78;5232835;28;20298;-70
2022/11/01 01:46:31;;;;;;;;;;;;;;;12.96;74.33;99062.03;5209990;28;20286;-70
2022/11/01 01:49:21;;;;;;;;;;;;;;;12.90;75.08;99055.50;5227976;28;19920;-70
2022/11/01 01:52:12;;;;;;;;;;;;;;;13.01;74.62;99057.06;5237010;28;20463;-70
2022/11/01 01:55:04;;;;;;;;;;;;;;;12.98;73.88;99054.75;5246033;28;20947;-70
2022/11/01 01:57:56;;;;;;;;;;;;;;;13.02;73.32;99045.44;5245720;28;20009;-71
2022/11/01 02:00:46;;;;;;;;;;;;;;;12.91;73.60;99045.69;5234272;28;20007;-71
2022/11/01 02:03:37;;;;;;;;;;;;;;;12.74;73.00;99052.75;5223583;28;19927;-70
2022/11/01 02:06:27;;;;;;;;;;;;;;;12.80;73.48;99052.13;5224937;28;19928;-71
2022/11/01 02:09:16;;;;;;;;;;;;;;;12.76;73.35;99048.09;5226940;28;19950;-71
2022/11/01 02:12:07;;;;;;;;;;;;;;;12.78;73.40;99048.81;5230007;28;20007;-71
2022/11/01 02:14:57;;;;;;;;;;;;;;;12.81;73.77;99058.28;5224999;28;20578;-71
2022/11/01 02:17:52;;;;;;;;;;;;;;;12.75;73.89;99061.53;5223206;28;20014;-70
2022/11/01 02:20:51;;;;;;;;;;;;;;;12.81;73.66;99064.41;5231982;28;20551;-70
2022/11/01 02:23:44;;;;;;;;;;;;;;;12.85;73.37;99064.97;5223983;28;19952;-71
2022/11/01 02:26:46;;;;;;;;;;;;;;;12.79;73.35;99073.56;5223495;28;19927;-70
2022/11/01 02:29:59;;;;;;;;;;;;;;;12.75;73.10;99081.03;5230844;28;19928;-71
2022/11/01 02:33:12;;;;;;;;;;;;;;;12.78;73.19;99075.41;5227347;28;19960;-70
2022/11/01 02:36:09;;;;;;;;;;;;;;;12.74;73.20;99065.22;5224420;28;20405;-71
2022/11/01 02:39:02;;;;;;;;;;;;;;;12.80;73.03;99062.75;5230921;28;20397;-70
2022/11/01 02:42:13;;;;;;;;;;;;;;;12.78;73.22;99054.13;5240390;28;20318;-71
2022/11/01 02:45:06;;;;;;;;;;;;;;;12.82;73.46;99052.81;5245142;28;19928;-71
2022/11/01 02:47:57;;;;;;;;;;;;;;;12.90;73.56;99066.16;5237203;28;19920;-70
2022/11/01 02:50:51;;;;;;;;;;;;;;;12.93;73.58;99065.00;5236651;28;19928;-70
2022/11/01 02:53:41;;;;;;;;;;;;;;;13.06;73.16;99052.09;5244250;28;20016;-71
2022/11/01 02:56:31;;;;;;;;;;;;;;;13.00;73.44;99062.56;5245007;28;20503;-70
2022/11/01 02:59:26;;;;;;;;;;;;;;;13.15;72.83;99064.47;5230894;28;19927;-70
2022/11/01 03:02:20;;;;;;;;;;;;;;;13.32;72.12;99046.78;5235723;28;19920;-71
2022/11/01 03:05:18;;;;;;;;;;;;;;;13.06;73.68;99093.88;5244886;28;19920;-71
2022/11/01 03:08:09;;;;;;;;;;;;;;;13.05;74.38;99090.38;5244338;28;19966;-71
2022/11/01 03:11:02;;;;;;;;;;;;;;;13.19;73.86;99083.63;5234372;28;19950;-71
2022/11/01 03:14:03;;;;;;;;;;;;;;;13.28;74.04;99069.41;5222799;28;19990;-71
2022/11/01 03:17:12;;;;;;;;;;;;;;;13.33;73.87;99074.25;5223771;28;19974;-71
2022/11/01 03:20:13;;;;;;;;;;;;;;;13.27;74.14;99077.53;5223441;28;19927;-70
2022/11/01 03:23:04;;;;;;;;;;;;;;;13.26;74.10;99079.38;5240220;28;19928;-71
2022/11/01 03:25:56;;;;;;;;;;;;;;;13.33;73.92;99079.56;5244466;28;20447;-71
2022/11/01 03:28:49;;;;;;;;;;;;;;;13.27;74.62;99082.84;5241167;28;19939;-71
2022/11/01 03:31:40;;;;;;;;;;;;;;;13.43;73.51;99082.09;5230510;28;20389;-71
2022/11/01 03:34:32;;;;;;;;;;;;;;;13.36;73.59;99085.41;5224830;28;19932;-71
2022/11/01 03:37:23;;;;;;;;;;;;;;;13.39;74.13;99073.59;5223887;28;20291;-71
2022/11/01 03:40:15;;;;;;;;;;;;;;;13.43;74.06;99088.25;5229944;28;19986;-71
2022/11/01 03:43:08;;;;;;;;;;;;;;;13.42;74.57;99083.94;5229595;28;20001;-71
2022/11/01 03:45:58;;;;;;;;;;;;;;;13.57;74.13;99090.31;5244215;28;19927;-71
2022/11/01 03:48:47;;;;;;;;;;;;;;;13.76;73.24;99091.88;5241024;28;19955;-71
2022/11/01 03:51:37;;;;;;;;;;;;;;;13.86;72.99;99108.56;5229962;28;19950;-71
2022/11/01 03:54:28;;;;;;;;;;;;;;;13.92;73.35;99115.09;5223799;28;19990;-71
2022/11/01 03:57:18;;;;;;;;;;;;;;;13.91;73.57;99125.91;5227614;28;19970;-71
2022/11/01 04:00:08;;;;;;;;;;;;;;;13.72;73.26;99129.69;5234536;28;20380;-71
2022/11/01 04:03:01;;;;;;;;;;;;;;;13.50;73.07;99129.25;5244630;28;19938;-71
2022/11/01 04:05:51;;;;;;;;;;;;;;;13.47;73.62;99137.56;5248031;28;20081;-71
2022/11/01 04:08:41;;;;;;;;;;;;;;;13.32;73.85;99136.50;5246327;28;19950;-71
2022/11/01 04:11:31;;;;;;;;;;;;;;;13.28;74.22;99132.47;5234855;28;20421;-71
2022/11/01 04:20:38;;;;;;;;;;;;;;;13.26;74.17;99147.75;5233705;28;20310;-71
2022/11/01 04:23:28;;;;;;;;;;;;;;;13.39;73.31;99145.50;5229914;28;19998;-71
2022/11/01 04:26:19;;;;;;;;;;;;;;;13.45;73.13;99133.41;5223045;28;20005;-71
2022/11/01 04:29:09;;;;;;;;;;;;;;;13.38;72.86;99136.69;5245034;28;20283;-70
2022/11/01 04:31:59;;;;;;;;;;;;;;;13.42;73.18;99131.88;5217595;28;20017;-71
2022/11/01 04:34:49;;;;;;;;;;;;;;;13.33;72.97;99154.97;5238423;28;20393;-71
2022/11/01 04:37:39;;;;;;;;;;;;;;;13.41;73.44;99156.84;5239945;28;19966;-71
2022/11/01 04:40:29;;;;;;;;;;;;;;;13.51;73.17;99148.72;5239400;28;20365;-71
2022/11/01 04:43:21;;;;;;;;;;;;;;;13.42;73.44;99141.72;5246510;28;20293;-71
2022/11/01 04:46:11;;;;;;;;;;;;;;;13.38;73.44;99152.66;5247272;28;19969;-70
2022/11/01 04:49:01;;;;;;;;;;;;;;;13.42;73.35;99160.34;5243133;28;19927;-71
2022/11/01 04:51:51;;;;;;;;;;;;;;;13.25;73.11;99178.06;5214665;28;19927;-70
2022/11/01 04:54:41;;;;;;;;;;;;;;;13.35;73.24;99184.94;5226267;28;19927;-71
2022/11/01 04:57:36;;;;;;;;;;;;;;;13.29;73.67;99206.03;5225193;28;20017;-70
2022/11/01 05:00:26;;;;;;;;;;;;;;;13.01;75.33;99219.41;5233508;28;20479;-70
2022/11/01 05:03:16;;;;;;;;;;;;;;;13.29;74.19;99211.38;5244199;28;19935;-70
2022/11/01 05:06:06;;;;;;;;;;;;;;;13.47;72.85;99216.63;5244579;28;19928;-71
2022/11/01 05:08:56;;;;;;;;;;;;;;;13.44;72.79;99219.59;5240850;28;20046;-70
2022/11/01 05:11:45;;;;;;;;;;;;;;;13.46;73.04;99220.28;5236372;28;20058;-71
2022/11/01 05:14:35;;;;;;;;;;;;;;;13.76;72.45;99216.31;5244965;28;19931;-71
2022/11/01 05:17:25;;;;;;;;;;;;;;;13.58;72.72;99225.22;5241524;28;20009;-71
2022/11/01 05:20:15;;;;;;;;;;;;;;;13.53;73.77;99222.16;5231684;28;19939;-70
2022/11/01 05:23:05;;;;;;;;;;;;;;;13.54;73.73;99225.66;5227426;28;19928;-71
2022/11/01 05:25:55;;;;;;;;;;;;;;;13.64;73.31;99231.72;5245341;28;20155;-71
2022/11/01 05:28:45;;;;;;;;;;;;;;;13.62;73.49;99242.53;5242358;28;19947;-71
2022/11/01 05:31:35;;;;;;;;;;;;;;;13.53;73.59;99262.13;5217332;28;19931;-70
2022/11/01 05:34:25;;;;;;;;;;;;;;;13.54;73.45;99261.16;5224562;28;19931;-71
2022/11/01 05:37:15;;;;;;;;;;;;;;;13.56;73.94;99248.50;5223166;28;20283;-71
2022/11/01 05:40:06;;;;;;;;;;;;;;;13.76;73.01;99246.44;5230960;28;19924;-71
2022/11/01 05:42:56;;;;;;;;;;;;;;;13.83;73.40;99252.00;5240874;28;20311;-71
2022/11/01 05:45:46;;;;;;;;;;;;;;;13.82;73.46;99237.00;5245259;28;19989;-71
2022/11/01 05:48:36;;;;;;;;;;;;;;;13.96;72.56;99214.22;5241882;28;19931;-71
2022/11/01 05:51:26;;;;;;;;;;;;;;;13.65;74.62;99221.91;5232145;28;19935;-71
2022/11/01 05:54:15;;;;;;;;;;;;;;;13.82;73.73;99219.19;5224859;28;19936;-71
2022/11/01 05:57:05;;;;;;;;;;;;;;;13.79;72.83;99195.50;5224384;28;19927;-71
2022/11/01 05:59:55;;;;;;;;;;;;;;;13.75;73.36;99243.97;5231550;28;19925;-71
2022/11/01 06:02:45;;;;;;;;;;;;;;;13.82;73.49;99226.34;5188351;28;1059054;-71
2022/11/01 06:05:36;;;;;;;;;;;;;;;13.83;74.01;99255.47;5225298;28;20386;-71
2022/11/01 06:08:26;;;;;;;;;;;;;;;13.89;73.96;99258.53;5224805;28;19928;-71
2022/11/01 06:11:16;;;;;;;;;;;;;;;13.96;74.30;99263.06;5234635;28;19927;-71
2022/11/01 06:14:09;;;;;;;;;;;;;;;14.07;73.40;99248.59;5239887;28;20042;-71
2022/11/01 06:16:59;;;;;;;;;;;;;;;14.08;73.67;99250.28;5223370;28;19932;-70
2022/11/01 06:19:49;;;;;;;;;;;;;;;14.17;73.95;99248.47;5221617;28;19926;-70
2022/11/01 06:22:38;;;;;;;;;;;;;;;14.20;74.44;99248.16;5226406;28;20577;-71
2022/11/01 06:25:29;;;;;;;;;;;;;;;14.37;74.46;99254.38;5205590;28;19994;-71
2022/11/01 06:28:18;;;;;;;;;;;;;;;14.35;74.18;99251.88;5205741;28;19921;-71
2022/11/01 06:31:08;;;;;;;;;;;;;;;14.39;73.68;99263.91;5233143;28;19939;-71
2022/11/01 06:33:58;;;;;;;;;;;;;;;14.29;73.35;99271.19;5245091;28;19990;-71
2022/11/01 06:36:48;;;;;;;;;;;;;;;14.20;73.27;99285.50;5244945;28;19927;-71
2022/11/01 06:39:38;;;;;;;;;;;;;;;14.22;73.31;99279.00;5241480;28;19956;-71
2022/11/01 06:42:27;;;;;;;;;;;;;;;14.20;73.38;99290.81;5236549;28;19946;-71
2022/11/01 06:45:17;;;;;;;;;;;;;;;14.20;74.02;99288.16;5245033;28;20073;-71
2022/11/01 06:48:07;;;;;;;;;;;;;;;14.03;73.70;99268.59;5243519;28;19926;-71
2022/11/01 06:50:57;;;;;;;;;;;;;;;14.20;73.54;99290.81;5233450;28;20015;-71
2022/11/01 06:53:47;;;;;;;;;;;;;;;14.24;73.27;99289.53;5224517;28;19947;-71
2022/11/01 06:56:37;;;;;;;;;;;;;;;14.24;73.85;99282.38;5223992;28;19921;-70
2022/11/01 06:59:26;;;;;;;;;;;;;;;14.23;73.43;99285.19;5227425;28;20433;-71
2022/11/01 07:02:16;;;;;;;;;;;;;;;14.38;72.99;99294.25;5235617;28;19926;-71
2022/11/01 07:05:08;;;;;;;;;;;;;;;14.28;73.39;99294.38;5206238;28;19944;-71
2022/11/01 07:07:59;;;;;;;;;;;;;;;14.34;73.48;99315.09;5213021;28;19974;-71
2022/11/01 07:10:49;;;;;;;;;;;;;;;14.34;73.80;99320.41;5223315;28;19927;-71
2022/11/01 07:13:39;;;;;;;;;;;;;;;14.29;74.55;99336.06;5211139;28;19928;-71
2022/11/01 07:16:30;;;;;;;;;;;;;;;14.61;73.92;99339.06;5188396;28;20314;-71
2022/11/01 07:19:22;;;;;;;;;;;;;;;14.47;74.34;99337.78;5222627;28;19924;-71
2022/11/01 07:22:13;;;;;;;;;;;;;;;14.86;73.44;99340.78;5204658;28;20010;-71
2022/11/01 07:25:03;;;;;;;;;;;;;;;15.06;73.05;99340.50;5223361;28;20093;-71
2022/11/01 07:27:53;;;;;;;;;;;;;;;15.12;73.64;99342.53;5209127;28;20430;-70
2022/11/01 07:30:47;;;;;;;;;;;;;;;15.28;73.20;99334.53;5231019;28;19927;-69
2022/11/01 07:33:40;;;;;;;;;;;;;;;15.43;73.05;99332.91;5213029;28;19927;-70
2022/11/01 07:36:30;;;;;;;;;;;;;;;15.28;73.65;99302.47;5222009;28;19933;-71
2022/11/01 07:39:19;;;;;;;;;;;;;;;15.38;73.90;99339.72;5220585;28;19921;-73
2022/11/01 07:42:09;;;;;;;;;;;;;;;15.35;72.70;99345.41;5230080;28;20037;-69
2022/11/01 07:44:59;;;;;;;;;;;;;;;15.25;71.33;99350.91;5204256;28;19931;-68
2022/11/01 07:47:49;;;;;;;;;;;;;;;15.22;72.81;99348.56;5231967;28;19935;-69
2022/11/01 07:50:40;;;;;;;;;;;;;;;15.26;72.39;99348.06;5240705;28;19927;-69
2022/11/01 07:53:30;;;;;;;;;;;;;;;15.28;72.86;99356.75;5248302;28;19960;-69
2022/11/01 07:56:20;;;;;;;;;;;;;;;15.33;72.54;99361.59;5249099;28;20065;-70
2022/11/01 07:59:10;;;;;;;;;;;;;;;15.27;72.33;99364.94;5237254;28;19929;-69
2022/11/01 08:02:01;;;;;;;;;;;;;;;15.36;72.76;99353.22;5207064;28;19925;-70
2022/11/01 08:04:54;;;;;;;;;;;;;;;15.42;72.47;99355.25;5211687;28;19925;-72
2022/11/01 08:07:45;;;;;;;;;;;;;;;15.48;71.83;99361.78;5221174;28;19931;-71
2022/11/01 08:10:36;;;;;;;;;;;;;;;15.49;71.82;99364.25;5228101;28;19925;-70
2022/11/01 08:13:27;;;;;;;;;;;;;;;15.47;72.46;99360.13;5215459;28;20558;-70
2022/11/01 08:16:17;;;;;;;;;;;;;;;15.52;71.63;99371.13;5224072;28;19931;-71
2022/11/01 08:19:08;;;;;;;;;;;;;;;15.65;71.50;99378.66;5219694;28;19927;-69
2022/11/01 08:21:58;;;;;;;;;;;;;;;15.78;71.61;99383.53;5216002;28;19932;-70
2022/11/01 08:24:48;;;;;;;;;;;;;;;15.87;71.64;99385.19;5224240;28;19943;-70
2022/11/01 08:27:38;;;;;;;;;;;;;;;15.95;71.99;99393.19;5219526;28;19986;-70
2022/11/01 08:30:28;;;;;;;;;;;;;;;16.13;71.59;99395.72;5226643;28;19931;-70
2022/11/01 08:33:17;;;;;;;;;;;;;;;16.18;71.67;99396.03;5224928;28;19954;-70
2022/11/01 08:36:07;;;;;;;;;;;;;;;16.30;71.88;99402.69;5211440;28;19928;-70
2022/11/01 08:38:57;;;;;;;;;;;;;;;16.40;71.63;99400.66;5215261;28;20374;-71
2022/11/01 08:41:48;;;;;;;;;;;;;;;16.39;72.51;99400.81;5212478;28;19928;-71
2022/11/01 08:44:38;;;;;;;;;;;;;;;16.74;71.24;99399.53;5229271;28;20069;-70
2022/11/01 08:47:28;;;;;;;;;;;;;;;16.85;70.28;99393.00;5221154;28;19928;-69
2022/11/01 08:50:18;;;;;;;;;;;;;;;17.10;70.31;99397.22;5221574;28;19928;-71
2022/11/01 08:53:10;;;;;;;;;;;;;;;17.27;69.61;99400.66;5221788;28;19927;-69
2022/11/01 08:55:59;;;;;;;;;;;;;;;17.30;67.55;99405.66;5224106;28;20006;-69
2022/11/01 08:58:50;;;;;;;;;;;;;;;17.54;67.61;99398.44;5217712;28;19943;-69
2022/11/01 09:01:40;;;;;;;;;;;;;;;17.54;66.20;99391.25;5223710;28;19927;-69
2022/11/01 09:04:30;;;;;;;;;;;;;;;17.63;66.81;99394.69;5219480;28;20665;-69
2022/11/01 09:07:20;;;;;;;;;;;;;;;17.69;66.56;99404.72;5218228;28;19951;-69
2022/11/01 09:10:11;;;;;;;;;;;;;;;17.63;67.82;99405.44;5214556;28;19928;-69
2022/11/01 09:13:01;;;;;;;;;;;;;;;17.58;67.64;99413.16;5213694;28;20383;-71
2022/11/01 09:15:51;;;;;;;;;;;;;;;17.60;68.50;99417.34;5222547;28;19942;-70
2022/11/01 09:18:41;;;;;;;;;;;;;;;17.71;68.75;99410.72;5219592;28;20290;-70
2022/11/01 09:21:31;;;;;;;;;;;;;;;17.70;66.85;99425.16;5245140;28;20513;-70
2022/11/01 09:24:21;;;;;;;;;;;;;;;17.78;65.21;99419.78;5237000;28;19926;-70
2022/11/01 09:27:11;;;;;;;;;;;;;;;17.68;63.88;99427.19;5222644;28;19927;-70
2022/11/01 09:30:02;;;;;;;;;;;;;;;17.55;64.34;99427.78;5213170;28;19947;-70
2022/11/01 09:32:52;;;;;;;;;;;;;;;17.91;63.19;99416.44;5214491;28;19920;-71
2022/11/01 09:35:48;;;;;;;;;;;;;;;17.81;63.41;99419.41;5223319;28;19927;-70
2022/11/01 09:38:41;;;;;;;;;;;;;;;17.83;62.87;99416.53;5199837;28;20313;-70
2022/11/01 09:41:37;;;;;;;;;;;;;;;18.62;61.30;99425.00;5204542;28;19920;-70
2022/11/01 09:44:30;;;;;;;;;;;;;;;18.64;62.09;99422.97;5205833;28;20021;-70
2022/11/01 09:47:27;;;;;;;;;;;;;;;18.89;62.04;99430.75;5236539;28;19935;-70
2022/11/01 09:50:21;;;;;;;;;;;;;;;19.12;61.28;99434.16;5245212;28;19931;-69
2022/11/01 09:53:19;;;;;;;;;;;;;;;19.53;60.82;99433.56;5234446;28;19982;-72
2022/11/01 09:56:12;;;;;;;;;;;;;;;19.50;60.66;99433.94;5232078;28;20291;-72
2022/11/01 09:59:07;;;;;;;;;;;;;;;19.79;59.43;99424.16;5223990;28;19927;-71
2022/11/01 10:02:02;;;;;;;;;;;;;;;20.06;57.39;99435.97;5207297;28;20010;-70
2022/11/01 10:05:15;;;;;;;;;;;;;;;19.68;59.25;99430.88;5223941;28;19920;-70
2022/11/01 10:08:26;;;;;;;;;;;;;;;19.35;60.36;99428.63;5241195;28;20409;-70
2022/11/01 10:11:55;;;;;;;;;;;;;;;19.75;58.74;99430.94;5243139;28;19931;-70
2022/11/01 10:14:53;;;;;;;;;;;;;;;19.69;59.21;99433.34;5164716;28;19929;-70
2022/11/01 10:17:53;;;;;;;;;;;;;;;19.65;57.95;99431.25;5155973;28;20446;-70
2022/11/01 10:20:43;;;;;;;;;;;;;;;19.71;57.24;99439.41;5223601;28;19980;-70
2022/11/01 10:23:36;;;;;;;;;;;;;;;19.83;58.40;99441.56;5208897;28;19928;-70
2022/11/01 10:26:28;;;;;;;;;;;;;;;18.99;59.74;99442.88;5232627;28;19955;-70
2022/11/01 10:29:24;;;;;;;;;;;;;;;19.78;58.07;99442.16;5209454;28;20447;-70
2022/11/01 10:32:29;;;;;;;;;;;;;;;19.71;58.45;99442.09;5223867;28;19931;-70
2022/11/01 10:35:40;;;;;;;;;;;;;;;19.50;58.77;99431.25;5202914;28;19927;-70
2022/11/01 10:38:36;;;;;;;;;;;;;;;19.27;58.81;99430.59;5221203;28;19963;-70
2022/11/01 10:41:51;;;;;;;;;;;;;;;19.75;58.62;99439.00;5224001;28;19935;-70
2022/11/01 10:44:56;;;;;;;;;;;;;;;19.89;58.45;99438.09;5229682;28;20048;-70
2022/11/01 10:47:54;;;;;;;;;;;;;;;19.83;57.41;99442.38;5238605;28;19955;-70
2022/11/01 10:50:45;;;;;;;;;;;;;;;19.94;58.12;99433.00;5244568;28;19928;-70
2022/11/01 10:53:39;;;;;;;;;;;;;;;19.86;57.42;99428.56;5243169;28;19920;-70
2022/11/01 10:56:40;;;;;;;;;;;;;;;19.35;58.99;99441.25;5217278;28;20070;-70
2022/11/01 10:59:35;;;;;;;;;;;;;;;19.67;58.57;99438.13;5213431;28;19927;-69
2022/11/01 11:02:29;;;;;;;;;;;;;;;19.43;57.54;99438.44;5213169;28;19944;-70
2022/11/01 11:05:21;;;;;;;;;;;;;;;19.71;56.50;99442.09;5244030;28;20301;-70
2022/11/01 11:08:13;;;;;;;;;;;;;;;19.36;58.24;99442.91;5244836;28;19920;-70
2022/11/01 11:11:08;;;;;;;;;;;;;;;19.52;57.10;99437.28;5232753;28;20046;-69
2022/11/01 11:14:01;;;;;;;;;;;;;;;19.11;58.64;99445.94;5244438;28;19920;-70
2022/11/01 11:16:54;;;;;;;;;;;;;;;19.20;59.73;99450.19;5244531;28;19920;-69
2022/11/01 11:19:44;;;;;;;;;;;;;;;18.96;57.44;99447.81;5238515;28;20054;-70
2022/11/01 11:22:36;;;;;;;;;;;;;;;19.29;57.56;99447.38;5235562;28;19995;-70
2022/11/01 11:25:39;;;;;;;;;;;;;;;19.64;57.72;99451.94;5244536;28;19924;-70
2022/11/01 11:28:31;;;;;;;;;;;;;;;19.63;57.58;99454.78;5243566;28;19920;-70
2022/11/01 11:31:30;;;;;;;;;;;;;;;19.76;56.79;99446.06;5227469;28;21305;-70
2022/11/01 11:34:27;;;;;;;;;;;;;;;19.84;57.27;99448.63;5235279;28;20473;-70
2022/11/01 11:37:19;;;;;;;;;;;;;;;19.54;57.93;99445.19;5244512;28;19978;-70
2022/11/01 11:40:28;;;;;;;;;;;;;;;19.66;57.35;99428.34;5237910;28;20443;-70
2022/11/01 11:43:21;;;;;;;;;;;;;;;19.09;57.75;99447.97;5243226;28;19970;-70
2022/11/01 11:46:14;;;;;;;;;;;;;;;18.93;58.58;99445.47;5244531;28;19920;-70
2022/11/01 11:49:05;;;;;;;;;;;;;;;18.84;58.01;99454.66;5240463;28;19928;-70
2022/11/01 11:51:57;;;;;;;;;;;;;;;18.03;60.26;99462.47;5235487;28;19924;-69
2022/11/01 11:55:33;;;;;;;;;;;;;;;18.73;59.97;99470.22;5244892;28;19927;-70
2022/11/01 11:58:36;;;;;;;;;;;;;;;18.15;61.75;99476.31;5244215;28;20299;-69
2022/11/01 12:01:28;;;;;;;;;;;;;;;18.04;60.46;99477.56;5231263;28;19928;-69
2022/11/01 12:04:19;;;;;;;;;;;;;;;18.14;61.14;99475.47;5223515;28;20302;-69
2022/11/01 12:07:27;;;;;;;;;;;;;;;18.28;60.23;99479.22;5223305;28;20013;-70
2022/11/01 12:10:26;;;;;;;;;;;;;;;17.91;61.04;99482.69;5233567;28;20028;-72
2022/11/01 12:13:25;;;;;;;;;;;;;;;17.94;60.98;99476.97;5223164;28;20386;-70
2022/11/01 12:16:19;;;;;;;;;;;;;;;18.19;60.86;99478.44;5209208;28;19928;-71
2022/11/01 12:19:23;;;;;;;;;;;;;;;17.75;60.80;99479.09;5228422;28;19928;-70
2022/11/01 12:22:13;;;;;;;;;;;;;;;17.49;61.48;99474.06;5238810;28;19927;-71
2022/11/01 12:25:05;;;;;;;;;;;;;;;17.54;60.44;99473.53;5247837;28;20291;-72
2022/11/01 12:28:00;;;;;;;;;;;;;;;17.67;59.68;99472.94;5247257;28;20382;-70
2022/11/01 12:30:54;;;;;;;;;;;;;;;17.76;60.51;99478.09;5236239;28;20422;-71
2022/11/01 12:33:44;;;;;;;;;;;;;;;17.57;61.14;99481.22;5223070;28;19949;-70
2022/11/01 12:36:42;;;;;;;;;;;;;;;18.18;60.98;99483.97;5206030;28;19944;-71
2022/11/01 12:39:39;;;;;;;;;;;;;;;17.95;59.31;99475.97;5202537;28;19969;-71
2022/11/01 12:42:34;;;;;;;;;;;;;;;18.13;59.22;99479.16;5236665;28;19921;-71
2022/11/01 12:45:28;;;;;;;;;;;;;;;18.04;59.96;99489.13;5232594;28;20025;-72
2022/11/01 12:48:27;;;;;;;;;;;;;;;18.73;58.28;99478.28;5247205;28;20018;-71
2022/11/01 12:51:24;;;;;;;;;;;;;;;18.74;57.96;99477.28;5234155;28;19929;-71
2022/11/01 12:54:27;;;;;;;;;;;;;;;18.83;57.90;99475.31;5226843;28;19920;-72
2022/11/01 12:57:18;;;;;;;;;;;;;;;18.60;58.78;99464.63;5226213;28;19920;-72
2022/11/01 13:00:15;;;;;;;;;;;;;;;18.80;56.93;99472.16;5215586;28;20402;-70
2022/11/01 13:03:17;;;;;;;;;;;;;;;18.60;57.92;99477.22;5228366;28;19921;-72
2022/11/01 13:06:27;;;;;;;;;;;;;;;18.61;57.92;99479.75;5224975;28;19920;-71
2022/11/01 13:09:20;;;;;;;;;;;;;;;18.13;58.06;99484.53;5228644;28;19950;-70
2022/11/01 13:12:13;;;;;;;;;;;;;;;18.41;58.17;99478.56;5237857;28;20005;-71
2022/11/01 13:15:12;;;;;;;;;;;;;;;18.19;57.81;99477.63;5246574;28;19927;-70
2022/11/01 13:18:14;;;;;;;;;;;;;;;18.19;58.37;99478.44;5236731;28;20249;-71
2022/11/01 13:21:12;;;;;;;;;;;;;;;18.39;57.44;99478.78;5226512;28;19942;-71
2022/11/01 13:24:20;;;;;;;;;;;;;;;18.71;57.70;99471.41;5210789;28;19928;-70
2022/11/01 13:27:14;;;;;;;;;;;;;;;18.00;58.81;99470.91;5224853;28;20453;-72
2022/11/01 13:30:08;;;;;;;;;;;;;;;18.17;58.51;99474.28;5231634;28;19973;-72
2022/11/01 13:32:59;;;;;;;;;;;;;;;18.18;57.50;99475.94;5242640;28;19974;-71
2022/11/01 13:36:12;;;;;;;;;;;;;;;17.91;59.19;99474.66;5245535;28;20337;-70
2022/11/01 13:39:13;;;;;;;;;;;;;;;18.30;57.84;99472.63;5242001;28;19928;-71
2022/11/01 13:42:08;;;;;;;;;;;;;;;18.26;56.56;99475.88;5235419;28;20417;-73
2022/11/01 13:45:17;;;;;;;;;;;;;;;18.18;57.60;99482.16;5242412;28;20054;-71
2022/11/01 13:48:25;;;;;;;;;;;;;;;18.01;58.91;99485.97;5245767;28;19931;-70
2022/11/01 13:51:31;;;;;;;;;;;;;;;17.81;58.08;99486.47;5232575;28;19927;-72
2022/11/01 13:54:41;;;;;;;;;;;;;;;17.42;59.54;99481.16;5225397;28;19920;-71
2022/11/01 13:57:31;;;;;;;;;;;;;;;17.58;58.89;99469.47;5225215;28;20401;-71
2022/11/01 14:00:41;;;;;;;;;;;;;;;17.70;58.04;99465.38;5217099;28;20026;-72
2022/11/01 14:03:31;;;;;;;;;;;;;;;17.85;58.41;99465.50;5222899;28;19932;-72
2022/11/01 14:06:21;;;;;;;;;;;;;;;17.82;58.17;99460.47;5224937;28;19928;-70
2022/11/01 14:09:28;;;;;;;;;;;;;;;17.70;57.87;99465.38;5225711;28;19921;-71
2022/11/01 14:12:38;;;;;;;;;;;;;;;17.21;59.43;99462.97;5228629;28;19928;-70
2022/11/01 14:15:38;;;;;;;;;;;;;;;17.30;58.86;99461.94;5224878;28;19928;-72
2022/11/01 14:18:48;;;;;;;;;;;;;;;17.57;59.41;99462.44;5224786;28;19927;-73
2022/11/01 14:21:39;;;;;;;;;;;;;;;17.39;58.62;99460.06;5234326;28;19924;-72
2022/11/01 14:24:29;;;;;;;;;;;;;;;17.51;58.48;99455.94;5230698;28;19971;-70
2022/11/01 14:27:28;;;;;;;;;;;;;;;16.82;59.59;99463.81;5230201;28;19928;-72
2022/11/01 14:30:19;;;;;;;;;;;;;;;16.58;61.47;99462.00;5238958;28;20397;-70
2022/11/01 14:33:15;;;;;;;;;;;;;;;16.84;60.16;99466.31;5240930;28;19924;-70
2022/11/01 14:36:06;;;;;;;;;;;;;;;16.96;59.75;99466.78;5244242;28;19928;-73
2022/11/01 14:39:02;;;;;;;;;;;;;;;17.26;58.75;99467.84;5242191;28;19920;-72
2022/11/01 14:41:53;;;;;;;;;;;;;;;17.30;59.14;99474.50;5220553;28;19927;-70
2022/11/01 14:44:46;;;;;;;;;;;;;;;17.17;58.34;99468.88;5239423;28;19981;-70
2022/11/01 14:47:39;;;;;;;;;;;;;;;17.13;58.93;99468.38;5230332;28;20065;-72
2022/11/01 14:50:52;;;;;;;;;;;;;;;17.11;59.05;99481.13;5233546;28;19928;-71
2022/11/01 14:53:44;;;;;;;;;;;;;;;17.22;58.75;99485.25;5244762;28;20013;-71
2022/11/01 14:56:35;;;;;;;;;;;;;;;17.10;58.98;99487.50;5244906;28;19950;-70
2022/11/01 14:59:31;;;;;;;;;;;;;;;16.77;60.02;99489.44;5238356;28;19928;-71
2022/11/01 15:02:22;;;;;;;;;;;;;;;17.17;59.48;99498.34;5213741;28;20377;-70
2022/11/01 15:05:12;;;;;;;;;;;;;;;17.29;59.59;99492.44;5223194;28;20333;-73
2022/11/01 15:08:02;;;;;;;;;;;;;;;17.37;59.57;99489.69;5223790;28;19932;-70
2022/11/01 15:10:54;;;;;;;;;;;;;;;17.20;58.80;99492.66;5221043;28;19951;-70